Time,TemperatureF,DewpointF,PressureIn,WindDirection,WindDirectionDegrees,WindSpeedMPH,WindSpeedGustMPH,Humidity,HourlyPrecipIn,Conditions,Clouds,dailyrainin,SoftwareType,DateUTC
2013-03-05 00:02:00,50.0,-99.9,30.20,SSW,206,5.0,7.0,-999,-99.99,,,-99.99,,2013-03-05 05:02:00,
2013-03-05 00:12:00,50.0,-99.9,30.20,SSW,208,7.0,10.0,-999,-99.99,,,-99.99,,2013-03-05 05:12:00,
2013-03-05 00:23:00,51.0,-99.9,30.20,SSW,211,6.0,9.0,-999,-99.99,,,-99.99,,2013-03-05 05:23:00,
2013-03-05 00:32:00,50.0,-99.9,30.19,SW,216,8.0,10.0,-999,-99.99,,,-99.99,,2013-03-05 05:32:00,
2013-03-05 00:42:00,51.0,-99.9,30.18,SSW,205,8.0,12.0,-999,-99.99,,,-99.99,,2013-03-05 05:42:00,
2013-03-05 00:52:00,51.0,-99.9,30.18,SSW,204,7.0,11.0,-999,-99.99,,,-99.99,,2013-03-05 05:52:00,
2013-03-05 01:02:00,51.0,-99.9,30.18,SSW,205,7.0,10.0,-999,-99.99,,,-99.99,,2013-03-05 06:02:00,
2013-03-05 01:11:00,51.0,-99.9,30.17,SSW,207,6.0,10.0,-999,-99.99,,,-99.99,,2013-03-05 06:11:00,
2013-03-05 01:22:00,51.0,-99.9,30.17,SSW,210,6.0,9.0,-999,-99.99,,,-99.99,,2013-03-05 06:22:00,
2013-03-05 01:32:00,51.0,-99.9,30.17,SW,216,6.0,10.0,-999,-99.99,,,-99.99,,2013-03-05 06:32:00,
2013-03-05 01:42:00,51.0,-99.9,30.17,SSW,211,5.0,8.0,-999,-99.99,,,-99.99,,2013-03-05 06:42:00,
2013-03-05 01:52:00,51.0,-99.9,30.16,SW,215,6.0,8.0,-999,-99.99,,,-99.99,,2013-03-05 06:52:00,
2013-03-05 02:01:00,51.0,-99.9,30.16,SW,218,7.0,11.0,-999,-99.99,,,-99.99,,2013-03-05 07:01:00,
2013-03-05 02:11:00,51.0,-99.9,30.16,SW,217,7.0,10.0,-999,-99.99,,,-99.99,,2013-03-05 07:11:00,
2013-03-05 02:22:00,51.0,-99.9,30.16,SSW,211,7.0,9.0,-999,-99.99,,,-99.99,,2013-03-05 07:22:00,
2013-03-05 02:32:00,51.0,-99.9,30.16,SW,214,7.0,9.0,-999,-99.99,,,-99.99,,2013-03-05 07:32:00,
2013-03-05 02:42:00,51.0,-99.9,30.16,SSW,212,7.0,10.0,-999,-99.99,,,-99.99,,2013-03-05 07:42:00,
2013-03-05 02:52:00,51.0,-99.9,30.17,SW,221,8.0,10.0,-999,-99.99,,,-99.99,,2013-03-05 07:52:00,
2013-03-05 03:02:00,50.0,-99.9,30.16,SSW,207,6.0,8.0,-999,-99.99,,,-99.99,,2013-03-05 08:02:00,
2013-03-05 03:11:00,50.0,-99.9,30.15,SSW,207,6.0,8.0,-999,-99.99,,,-99.99,,2013-03-05 08:11:00,
2013-03-05 03:21:00,50.0,-99.9,30.15,SSW,213,6.0,8.0,-999,-99.99,,,-99.99,,2013-03-05 08:21:00,
2013-03-05 03:32:00,50.0,-99.9,30.16,SW,221,6.0,8.0,-999,-99.99,,,-99.99,,2013-03-05 08:32:00,
2013-03-05 03:42:00,51.0,-99.9,30.16,SW,233,10.0,11.0,-999,-99.99,,,-99.99,,2013-03-05 08:42:00,
2013-03-05 03:52:00,51.0,-99.9,30.17,WSW,242,9.0,12.0,-999,-99.99,,,-99.99,,2013-03-05 08:52:00,
2013-03-05 04:02:00,50.0,-99.9,30.17,WSW,250,11.0,13.0,-999,-99.99,,,-99.99,,2013-03-05 09:02:00,
2013-03-05 04:11:00,51.0,-99.9,30.17,WSW,239,8.0,11.0,-999,-99.99,,,-99.99,,2013-03-05 09:11:00,
2013-03-05 04:22:00,51.0,-99.9,30.17,WSW,251,9.0,11.0,-999,-99.99,,,-99.99,,2013-03-05 09:22:00,
2013-03-05 04:32:00,51.0,-99.9,30.18,West,265,10.0,11.0,-999,-99.99,,,-99.99,,2013-03-05 09:32:00,
2013-03-05 04:43:00,51.0,-99.9,30.19,West,281,6.0,9.0,-999,-99.99,,,-99.99,,2013-03-05 09:43:00,
2013-03-05 04:52:00,51.0,-99.9,30.19,West,281,9.0,11.0,-999,-99.99,,,-99.99,,2013-03-05 09:52:00,
2013-03-05 05:02:00,51.0,-99.9,30.19,WSW,252,11.0,14.0,-999,-99.99,,,-99.99,,2013-03-05 10:02:00,
2013-03-05 05:11:00,50.0,-99.9,30.19,WSW,241,9.0,11.0,-999,-99.99,,,-99.99,,2013-03-05 10:11:00,
2013-03-05 05:22:00,50.0,-99.9,30.19,WSW,237,8.0,11.0,-999,-99.99,,,-99.99,,2013-03-05 10:22:00,
2013-03-05 05:32:00,50.0,-99.9,30.19,SW,221,6.0,7.0,-999,-99.99,,,-99.99,,2013-03-05 10:32:00,
2013-03-05 05:42:00,49.0,-99.9,30.20,SW,224,5.0,7.0,-999,-99.99,,,-99.99,,2013-03-05 10:42:00,
2013-03-05 05:52:00,49.0,-99.9,30.20,SW,218,5.0,8.0,-999,-99.99,,,-99.99,,2013-03-05 10:52:00,
2013-03-05 06:02:00,49.0,-99.9,30.20,SW,220,5.0,6.0,-999,-99.99,,,-99.99,,2013-03-05 11:02:00,
2013-03-05 06:12:00,49.0,-99.9,30.21,WSW,250,6.0,7.0,-999,-99.99,,,-99.99,,2013-03-05 11:12:00,
2013-03-05 06:22:00,49.0,-99.9,30.21,WSW,243,6.0,7.0,-999,-99.99,,,-99.99,,2013-03-05 11:22:00,
2013-03-05 06:32:00,49.0,-99.9,30.22,WSW,254,3.0,5.0,-999,-99.99,,,-99.99,,2013-03-05 11:32:00,
2013-03-05 06:42:00,49.0,-99.9,30.22,West,262,3.0,4.0,-999,-99.99,,,-99.99,,2013-03-05 11:42:00,
2013-03-05 06:52:00,49.0,-99.9,30.22,WSW,253,3.0,4.0,-999,-99.99,,,-99.99,,2013-03-05 11:52:00,
2013-03-05 07:03:00,49.0,-99.9,30.23,WNW,286,4.0,5.0,-999,-99.99,,,-99.99,,2013-03-05 12:03:00,
2013-03-05 07:12:00,49.0,-99.9,30.23,West,264,3.0,4.0,-999,-99.99,,,-99.99,,2013-03-05 12:12:00,
2013-03-05 07:22:00,48.0,-99.9,30.23,SW,224,3.0,3.0,-999,-99.99,,,-99.99,,2013-03-05 12:22:00,
2013-03-05 07:32:00,48.0,-99.9,30.23,SW,226,2.0,3.0,-999,-99.99,,,-99.99,,2013-03-05 12:32:00,
2013-03-05 07:42:00,49.0,-99.9,30.23,SW,234,2.0,3.0,-999,-99.99,,,-99.99,,2013-03-05 12:42:00,
2013-03-05 07:53:00,48.0,-99.9,30.23,SW,232,1.0,2.0,-999,-99.99,,,-99.99,,2013-03-05 12:53:00,
2013-03-05 08:02:00,47.0,-99.9,30.24,South,189,3.0,4.0,-999,-99.99,,,-99.99,,2013-03-05 13:02:00,
2013-03-05 08:12:00,48.0,-99.9,30.24,SSW,196,4.0,4.0,-999,-99.99,,,-99.99,,2013-03-05 13:12:00,
2013-03-05 08:22:00,48.0,-99.9,30.23,South,186,3.0,4.0,-999,-99.99,,,-99.99,,2013-03-05 13:22:00,
2013-03-05 08:32:00,50.0,-99.9,30.23,South,182,2.0,2.0,-999,-99.99,,,-99.99,,2013-03-05 13:32:00,
2013-03-05 08:42:00,51.0,-99.9,30.23,SW,218,2.0,4.0,-999,-99.99,,,-99.99,,2013-03-05 13:42:00,
2013-03-05 08:52:00,51.0,-99.9,30.23,SW,223,4.0,5.0,-999,-99.99,,,-99.99,,2013-03-05 13:52:00,
2013-03-05 09:02:00,51.0,-99.9,30.23,SW,232,3.0,5.0,-999,-99.99,,,-99.99,,2013-03-05 14:02:00,
2013-03-05 09:11:00,52.0,-99.9,30.23,SW,233,4.0,5.0,-999,-99.99,,,-99.99,,2013-03-05 14:11:00,
2013-03-05 09:22:00,53.0,-99.9,30.23,SW,232,3.0,4.0,-999,-99.99,,,-99.99,,2013-03-05 14:22:00,
2013-03-05 09:32:00,55.0,-99.9,30.22,SW,221,6.0,8.0,-999,-99.99,,,-99.99,,2013-03-05 14:32:00,
2013-03-05 09:42:00,55.0,-99.9,30.22,SW,236,10.0,12.0,-999,-99.99,,,-99.99,,2013-03-05 14:42:00,
2013-03-05 09:52:00,56.0,-99.9,30.22,SW,223,8.0,12.0,-999,-99.99,,,-99.99,,2013-03-05 14:52:00,
2013-03-05 10:02:00,56.0,-99.9,30.22,SW,227,8.0,11.0,-999,-99.99,,,-99.99,,2013-03-05 15:02:00,
2013-03-05 10:11:00,57.0,-99.9,30.21,SW,229,8.0,11.0,-999,-99.99,,,-99.99,,2013-03-05 15:11:00,
2013-03-05 10:22:00,58.0,-99.9,30.20,SW,230,8.0,11.0,-999,-99.99,,,-99.99,,2013-03-05 15:22:00,
2013-03-05 10:32:00,59.0,-99.9,30.19,SW,222,10.0,12.0,-999,-99.99,,,-99.99,,2013-03-05 15:32:00,
2013-03-05 10:42:00,60.0,-99.9,30.19,SW,228,8.0,11.0,-999,-99.99,,,-99.99,,2013-03-05 15:42:00,
2013-03-05 10:52:00,60.0,-99.9,30.19,SW,230,10.0,12.0,-999,-99.99,,,-99.99,,2013-03-05 15:52:00,
2013-03-05 11:02:00,60.0,-99.9,30.20,SW,226,8.0,12.0,-999,-99.99,,,-99.99,,2013-03-05 16:02:00,
2013-03-05 11:11:00,61.0,-99.9,30.20,SW,223,11.0,15.0,-999,-99.99,,,-99.99,,2013-03-05 16:11:00,
2013-03-05 11:22:00,61.0,-99.9,30.20,SW,231,10.0,13.0,-999,-99.99,,,-99.99,,2013-03-05 16:22:00,
2013-03-05 11:32:00,62.0,-99.9,30.19,SW,228,9.0,13.0,-999,-99.99,,,-99.99,,2013-03-05 16:32:00,
2013-03-05 11:42:00,63.0,-99.9,30.18,SW,234,11.0,16.0,-999,-99.99,,,-99.99,,2013-03-05 16:42:00,
2013-03-05 11:52:00,64.0,-99.9,30.18,SW,230,12.0,17.0,-999,-99.99,,,-99.99,,2013-03-05 16:52:00,
2013-03-05 12:01:00,64.0,-99.9,30.17,WSW,242,13.0,16.0,-999,-99.99,,,-99.99,,2013-03-05 17:01:00,
2013-03-05 12:11:00,65.0,-99.9,30.16,SW,226,13.0,18.0,-999,-99.99,,,-99.99,,2013-03-05 17:11:00,
2013-03-05 12:22:00,65.0,-99.9,30.16,SW,226,15.0,17.0,-999,-99.99,,,-99.99,,2013-03-05 17:22:00,
2013-03-05 12:32:00,67.0,-99.9,30.15,SSW,213,10.0,16.0,-999,-99.99,,,-99.99,,2013-03-05 17:32:00,
2013-03-05 12:42:00,66.0,-99.9,30.15,SW,229,11.0,15.0,-999,-99.99,,,-99.99,,2013-03-05 17:42:00,
2013-03-05 12:53:00,67.0,-99.9,30.14,SW,226,11.0,15.0,-999,-99.99,,,-99.99,,2013-03-05 17:53:00,
2013-03-05 13:02:00,67.0,-99.9,30.14,SW,233,13.0,16.0,-999,-99.99,,,-99.99,,2013-03-05 18:02:00,
2013-03-05 13:11:00,67.0,-99.9,30.12,SW,233,11.0,14.0,-999,-99.99,,,-99.99,,2013-03-05 18:11:00,
2013-03-05 13:22:00,68.0,-99.9,30.11,SW,231,13.0,16.0,-999,-99.99,,,-99.99,,2013-03-05 18:22:00,
2013-03-05 13:32:00,68.0,-99.9,30.11,SW,229,13.0,17.0,-999,-99.99,,,-99.99,,2013-03-05 18:32:00,
2013-03-05 13:42:00,69.0,-99.9,30.10,SW,221,13.0,17.0,-999,-99.99,,,-99.99,,2013-03-05 18:42:00,
2013-03-05 13:53:00,68.0,-99.9,30.09,WSW,240,15.0,17.0,-999,-99.99,,,-99.99,,2013-03-05 18:53:00,
2013-03-05 14:02:00,70.0,-99.9,30.08,SW,223,15.0,20.0,-999,-99.99,,,-99.99,,2013-03-05 19:02:00,
2013-03-05 14:11:00,71.0,-99.9,30.07,SW,215,11.0,21.0,-999,-99.99,,,-99.99,,2013-03-05 19:11:00,
2013-03-05 14:22:00,71.0,-99.9,30.06,SW,226,11.0,19.0,-999,-99.99,,,-99.99,,2013-03-05 19:22:00,
2013-03-05 14:32:00,72.0,-99.9,30.06,SW,224,12.0,24.0,-999,-99.99,,,-99.99,,2013-03-05 19:32:00,
2013-03-05 14:42:00,71.0,-99.9,30.06,SW,225,16.0,23.0,-999,-99.99,,,-99.99,,2013-03-05 19:42:00,
2013-03-05 14:52:00,71.0,-99.9,30.07,SW,235,16.0,23.0,-999,-99.99,,,-99.99,,2013-03-05 19:52:00,
2013-03-05 15:02:00,71.0,-99.9,30.06,SW,224,12.0,18.0,-999,-99.99,,,-99.99,,2013-03-05 20:02:00,
2013-03-05 15:11:00,71.0,-99.9,30.06,WSW,245,15.0,19.0,-999,-99.99,,,-99.99,,2013-03-05 20:11:00,
2013-03-05 15:22:00,71.0,-99.9,30.06,WSW,253,17.0,22.0,-999,-99.99,,,-99.99,,2013-03-05 20:22:00,
2013-03-05 15:32:00,72.0,-99.9,30.05,SW,214,14.0,24.0,-999,-99.99,,,-99.99,,2013-03-05 20:32:00,
2013-03-05 15:42:00,71.0,-99.9,30.04,SW,229,18.0,24.0,-999,-99.99,,,-99.99,,2013-03-05 20:42:00,
2013-03-05 15:52:00,72.0,-99.9,30.04,SW,226,14.0,23.0,-999,-99.99,,,-99.99,,2013-03-05 20:52:00,
2013-03-05 16:02:00,72.0,-99.9,30.04,SW,223,15.0,23.0,-999,-99.99,,,-99.99,,2013-03-05 21:02:00,
2013-03-05 16:11:00,72.0,-99.9,30.03,SW,225,17.0,22.0,-999,-99.99,,,-99.99,,2013-03-05 21:11:00,
2013-03-05 16:22:00,72.0,-99.9,30.03,SW,221,16.0,23.0,-999,-99.99,,,-99.99,,2013-03-05 21:22:00,
2013-03-05 16:32:00,71.0,-99.9,30.03,SW,229,14.0,24.0,-999,-99.99,,,-99.99,,2013-03-05 21:32:00,
2013-03-05 16:42:00,72.0,-99.9,30.02,SW,235,20.0,24.0,-999,-99.99,,,-99.99,,2013-03-05 21:42:00,
2013-03-05 16:53:00,72.0,-99.9,30.02,WSW,239,17.0,23.0,-999,-99.99,,,-99.99,,2013-03-05 21:53:00,
2013-03-05 17:01:00,71.0,-99.9,30.01,WSW,238,20.0,25.0,-999,-99.99,,,-99.99,,2013-03-05 22:01:00,
2013-03-05 17:12:00,71.0,-99.9,30.01,WSW,241,21.0,25.0,-999,-99.99,,,-99.99,,2013-03-05 22:12:00,
2013-03-05 17:22:00,71.0,-99.9,30.01,SW,233,17.0,21.0,-999,-99.99,,,-99.99,,2013-03-05 22:22:00,
2013-03-05 17:32:00,71.0,-99.9,30.01,SW,234,16.0,20.0,-999,-99.99,,,-99.99,,2013-03-05 22:32:00,
2013-03-05 17:42:00,72.0,-99.9,30.01,WSW,240,19.0,28.0,-999,-99.99,,,-99.99,,2013-03-05 22:42:00,
2013-03-05 17:52:00,72.0,-99.9,30.01,WSW,240,18.0,22.0,-999,-99.99,,,-99.99,,2013-03-05 22:52:00,
2013-03-05 18:01:00,71.0,-99.9,30.00,SW,229,17.0,24.0,-999,-99.99,,,-99.99,,2013-03-05 23:01:00,
2013-03-05 18:11:00,71.0,-99.9,29.99,SW,227,16.0,24.0,-999,-99.99,,,-99.99,,2013-03-05 23:11:00,
2013-03-05 18:22:00,71.0,-99.9,29.99,SW,234,21.0,27.0,-999,-99.99,,,-99.99,,2013-03-05 23:22:00,
2013-03-05 18:32:00,71.0,-99.9,29.99,WSW,237,21.0,26.0,-999,-99.99,,,-99.99,,2013-03-05 23:32:00,
2013-03-05 18:42:00,70.0,-99.9,29.98,SW,224,17.0,22.0,-999,-99.99,,,-99.99,,2013-03-05 23:42:00,
2013-03-05 18:53:00,70.0,-99.9,29.98,SW,230,18.0,26.0,-999,-99.99,,,-99.99,,2013-03-05 23:53:00,
2013-03-05 19:02:00,70.0,-99.9,29.98,SW,224,15.0,21.0,-999,-99.99,,,-99.99,,2013-03-06 00:02:00,
2013-03-05 19:11:00,69.0,-99.9,29.98,SW,223,16.0,25.0,-999,-99.99,,,-99.99,,2013-03-06 00:11:00,
2013-03-05 19:22:00,69.0,-99.9,29.98,SW,231,18.0,23.0,-999,-99.99,,,-99.99,,2013-03-06 00:22:00,
2013-03-05 19:32:00,69.0,-99.9,29.99,SW,233,18.0,22.0,-999,-99.99,,,-99.99,,2013-03-06 00:32:00,
2013-03-05 19:42:00,68.0,-99.9,29.99,SW,229,18.0,23.0,-999,-99.99,,,-99.99,,2013-03-06 00:42:00,
2013-03-05 19:52:00,68.0,-99.9,29.99,SW,228,18.0,28.0,-999,-99.99,,,-99.99,,2013-03-06 00:52:00,
2013-03-05 20:02:00,68.0,-99.9,29.99,WSW,237,19.0,23.0,-999,-99.99,,,-99.99,,2013-03-06 01:02:00,
2013-03-05 20:11:00,68.0,-99.9,29.98,SW,232,19.0,26.0,-999,-99.99,,,-99.99,,2013-03-06 01:11:00,
2013-03-05 20:22:00,68.0,-99.9,29.98,SW,231,23.0,31.0,-999,-99.99,,,-99.99,,2013-03-06 01:22:00,
2013-03-05 20:32:00,67.0,-99.9,29.99,SW,233,21.0,29.0,-999,-99.99,,,-99.99,,2013-03-06 01:32:00,
2013-03-05 20:42:00,67.0,-99.9,29.99,SW,235,21.0,30.0,-999,-99.99,,,-99.99,,2013-03-06 01:42:00,
2013-03-05 20:52:00,67.0,-99.9,29.98,SW,233,20.0,26.0,-999,-99.99,,,-99.99,,2013-03-06 01:52:00,
2013-03-05 21:01:00,67.0,-99.9,29.98,SW,231,22.0,30.0,-999,-99.99,,,-99.99,,2013-03-06 02:01:00,
2013-03-05 21:11:00,66.0,-99.9,29.98,SW,229,17.0,21.0,-999,-99.99,,,-99.99,,2013-03-06 02:11:00,
2013-03-05 21:22:00,66.0,-99.9,29.98,SW,231,23.0,29.0,-999,-99.99,,,-99.99,,2013-03-06 02:22:00,
2013-03-05 21:32:00,66.0,-99.9,29.97,SW,230,21.0,29.0,-999,-99.99,,,-99.99,,2013-03-06 02:32:00,
2013-03-05 21:42:00,66.0,-99.9,29.97,SW,227,17.0,25.0,-999,-99.99,,,-99.99,,2013-03-06 02:42:00,
2013-03-05 21:52:00,65.0,-99.9,29.97,SW,230,20.0,30.0,-999,-99.99,,,-99.99,,2013-03-06 02:52:00,
2013-03-05 22:02:00,65.0,-99.9,29.97,SW,232,19.0,25.0,-999,-99.99,,,-99.99,,2013-03-06 03:02:00,
2013-03-05 22:12:00,65.0,-99.9,29.96,SW,226,17.0,28.0,-999,-99.99,,,-99.99,,2013-03-06 03:12:00,
2013-03-05 22:22:00,65.0,-99.9,29.96,SW,228,17.0,26.0,-999,-99.99,,,-99.99,,2013-03-06 03:22:00,
2013-03-05 22:32:00,65.0,-99.9,29.96,SW,231,19.0,27.0,-999,-99.99,,,-99.99,,2013-03-06 03:32:00,
2013-03-05 22:42:00,65.0,-99.9,29.96,WSW,239,24.0,29.0,-999,-99.99,,,-99.99,,2013-03-06 03:42:00,
2013-03-05 22:53:00,65.0,-99.9,29.96,WSW,240,25.0,30.0,-999,-99.99,,,-99.99,,2013-03-06 03:53:00,
2013-03-05 23:02:00,64.0,-99.9,29.96,WSW,239,24.0,29.0,-999,-99.99,,,-99.99,,2013-03-06 04:02:00,
2013-03-05 23:11:00,64.0,-99.9,29.96,WSW,242,24.0,28.0,-999,-99.99,,,-99.99,,2013-03-06 04:11:00,
2013-03-05 23:22:00,64.0,-99.9,29.95,WSW,240,26.0,31.0,-999,-99.99,,,-99.99,,2013-03-06 04:22:00,
2013-03-05 23:32:00,64.0,-99.9,29.94,SW,236,27.0,32.0,-999,-99.99,,,-99.99,,2013-03-06 04:32:00,
2013-03-05 23:42:00,64.0,-99.9,29.94,WSW,239,23.0,32.0,-999,-99.99,,,-99.99,,2013-03-06 04:42:00,
2013-03-05 23:52:00,64.0,-99.9,29.94,WSW,241,22.0,33.0,-999,-99.99,,,-99.99,,2013-03-06 04:52:00,